createdAt,value
2018-04-29T00:00:30.427Z,25.63
2018-04-29T00:02:58.500Z,29.43
2018-04-29T00:05:26.696Z,28.53
2018-04-29T00:07:54.588Z,27.60
2018-04-29T00:10:23.149Z,29.53
2018-04-29T00:12:51.056Z,27.97
2018-04-29T00:15:19.010Z,28.47
2018-04-29T00:17:46.902Z,28.87
2018-04-29T00:20:14.828Z,28.73
2018-04-29T00:22:42.733Z,27.80
2018-04-29T00:25:10.643Z,29.67
2018-04-29T00:27:38.555Z,30.07
2018-04-29T00:30:06.475Z,28.20
2018-04-29T00:32:34.420Z,28.27
2018-04-29T00:35:02.319Z,29.00
2018-04-29T00:37:30.318Z,31.80
2018-04-29T00:39:58.193Z,29.33
2018-04-29T00:42:26.103Z,28.40
2018-04-29T00:44:54.004Z,29.27
2018-04-29T00:47:21.919Z,27.20
2018-04-29T00:49:49.829Z,28.70
2018-04-29T00:52:17.754Z,29.10
2018-04-29T00:54:45.824Z,26.63
2018-04-29T00:57:13.771Z,26.93
2018-04-29T00:59:41.696Z,29.17
2018-04-29T01:02:09.611Z,27.93
2018-04-29T01:04:37.536Z,28.47
2018-04-29T01:07:05.541Z,27.57
2018-04-29T01:09:33.475Z,27.37
2018-04-29T01:12:01.388Z,28.27
2018-04-29T01:14:29.343Z,29.90
2018-04-29T01:16:57.256Z,28.80
2018-04-29T01:19:25.182Z,27.83
2018-04-29T01:21:53.160Z,27.13
2018-04-29T01:24:21.063Z,28.87
2018-04-29T01:26:49.009Z,28.50
2018-04-29T01:29:16.912Z,29.83
2018-04-29T01:31:44.833Z,29.87
2018-04-29T01:34:12.741Z,30.73
2018-04-29T01:36:40.671Z,30.20
2018-04-29T01:39:08.586Z,30.87
2018-04-29T01:41:36.519Z,31.23
2018-04-29T01:44:04.424Z,32.70
2018-04-29T01:46:32.359Z,33.60
2018-04-29T01:49:00.257Z,34.50
2018-04-29T01:51:28.168Z,33.20
2018-04-29T01:53:56.076Z,32.63
2018-04-29T01:56:23.998Z,34.50
2018-04-29T01:58:51.912Z,36.20
2018-04-29T02:01:19.839Z,32.50
2018-04-29T02:03:47.756Z,32.50
2018-04-29T02:06:15.676Z,30.70
2018-04-29T02:08:43.591Z,31.63
2018-04-29T02:11:11.502Z,30.77
2018-04-29T02:13:39.415Z,31.43
2018-04-29T02:16:07.328Z,30.70
2018-04-29T02:18:35.244Z,31.73
2018-04-29T02:21:03.154Z,29.70
2018-04-29T02:23:31.088Z,30.60
2018-04-29T02:25:59.081Z,30.40
2018-04-29T02:28:26.975Z,30.03
2018-04-29T02:30:54.891Z,28.70
2018-04-29T02:33:22.807Z,28.20
2018-04-29T02:35:50.716Z,27.37
2018-04-29T02:38:18.639Z,29.33
2018-04-29T02:40:46.572Z,28.23
2018-04-29T02:43:14.465Z,27.20
2018-04-29T02:45:42.371Z,28.70
2018-04-29T02:48:10.288Z,29.63
2018-04-29T02:50:38.189Z,28.60
2018-04-29T02:53:06.144Z,27.47
2018-04-29T02:55:34.069Z,29.57
2018-04-29T02:58:01.989Z,28.40
2018-04-29T03:00:29.899Z,28.53
2018-04-29T03:02:57.855Z,31.23
2018-04-29T03:05:25.761Z,32.60
2018-04-29T03:07:53.709Z,30.57
2018-04-29T03:10:21.624Z,32.83
2018-04-29T03:12:49.529Z,32.00
2018-04-29T03:15:17.452Z,32.33
2018-04-29T03:17:45.365Z,32.43
2018-04-29T03:20:13.293Z,31.30
2018-04-29T03:22:41.199Z,31.80
2018-04-29T03:25:09.131Z,32.90
2018-04-29T03:27:37.035Z,32.00
2018-04-29T03:30:04.969Z,31.47
2018-04-29T03:32:32.875Z,30.07
2018-04-29T03:35:00.792Z,30.97
2018-04-29T03:37:28.732Z,32.37
2018-04-29T03:39:56.656Z,30.33
2018-04-29T03:42:24.671Z,28.73
2018-04-29T03:44:52.591Z,30.87
2018-04-29T03:47:20.524Z,29.17
2018-04-29T03:49:48.442Z,30.30
2018-04-29T03:52:16.331Z,28.87
2018-04-29T03:54:44.330Z,27.70
2018-04-29T03:57:24.091Z,27.93
2018-04-29T04:00:03.821Z,25.73
2018-04-29T04:02:43.447Z,25.20
2018-04-29T04:05:11.354Z,24.63
2018-04-29T04:07:39.266Z,22.07
2018-04-29T04:10:07.751Z,26.33
2018-04-29T04:12:35.667Z,23.70
2018-04-29T04:15:03.575Z,24.40
2018-04-29T04:17:31.493Z,22.10
2018-04-29T04:19:59.420Z,22.00
2018-04-29T04:22:27.340Z,23.80
2018-04-29T04:24:55.261Z,21.07
2018-04-29T04:27:23.172Z,23.33
2018-04-29T04:29:51.101Z,22.87
2018-04-29T04:32:19.015Z,23.70
2018-04-29T04:34:46.919Z,22.80
2018-04-29T04:37:14.845Z,23.20
2018-04-29T04:39:42.752Z,23.63
2018-04-29T04:42:10.672Z,24.00
2018-04-29T04:44:38.569Z,23.53
2018-04-29T04:47:06.486Z,23.70
2018-04-29T04:49:34.404Z,24.87
2018-04-29T04:52:02.321Z,24.20
2018-04-29T04:54:30.223Z,23.10
2018-04-29T04:56:58.179Z,24.47
2018-04-29T04:59:26.107Z,25.50
2018-04-29T05:01:54.042Z,25.17
2018-04-29T05:04:21.962Z,23.60
2018-04-29T05:06:49.884Z,25.00
2018-04-29T05:09:17.819Z,23.37
2018-04-29T05:11:45.717Z,23.93
2018-04-29T05:14:13.738Z,21.40
2018-04-29T05:16:41.615Z,24.10
2018-04-29T05:19:09.578Z,23.03
2018-04-29T05:21:37.479Z,22.13
2018-04-29T05:24:05.425Z,24.27
2018-04-29T05:26:33.329Z,22.57
2018-04-29T05:29:01.289Z,21.77
2018-04-29T05:31:29.192Z,20.80
2018-04-29T05:33:57.106Z,21.77
2018-04-29T05:36:25.024Z,21.70
2018-04-29T05:38:52.974Z,21.50
2018-04-29T05:41:20.915Z,21.87
2018-04-29T05:43:48.865Z,22.80
2018-04-29T05:46:16.763Z,23.20
2018-04-29T05:48:44.679Z,22.60
2018-04-29T05:51:13.239Z,23.60
2018-04-29T05:53:41.239Z,21.60
2018-04-29T05:56:09.170Z,21.30
2018-04-29T05:58:37.088Z,22.07
2018-04-29T06:01:05.037Z,20.20
2018-04-29T06:03:32.931Z,20.87
2018-04-29T06:06:01.015Z,20.90
2018-04-29T06:08:28.944Z,19.03
2018-04-29T06:10:56.859Z,22.37
2018-04-29T06:13:24.760Z,21.37
2018-04-29T06:15:52.697Z,20.70
2018-04-29T06:18:20.621Z,22.17
2018-04-29T06:20:48.533Z,21.57
2018-04-29T06:23:17.278Z,23.10
2018-04-29T06:25:45.191Z,22.47
2018-04-29T06:28:13.093Z,22.43
2018-04-29T06:30:41.017Z,20.97
2018-04-29T06:33:08.915Z,19.33
2018-04-29T06:35:36.832Z,16.70
2018-04-29T06:38:04.759Z,15.63
2018-04-29T06:40:32.676Z,17.20
2018-04-29T06:43:00.587Z,15.80
2018-04-29T06:45:28.495Z,15.53
2018-04-29T06:47:56.504Z,15.70
2018-04-29T06:50:24.411Z,15.20
2018-04-29T06:52:52.491Z,16.43
2018-04-29T06:55:20.462Z,16.23
2018-04-29T06:57:48.352Z,17.50
2018-04-29T07:00:16.365Z,16.73
2018-04-29T07:02:44.330Z,17.50
2018-04-29T07:05:12.297Z,18.20
2018-04-29T07:07:40.274Z,16.80
2018-04-29T07:10:08.188Z,17.20
2018-04-29T07:12:36.124Z,17.80
2018-04-29T07:15:04.034Z,17.87
2018-04-29T07:17:32.383Z,16.90
2018-04-29T07:20:00.332Z,17.20
2018-04-29T07:22:28.189Z,15.00
2018-04-29T07:24:56.102Z,16.57
2018-04-29T07:27:24.013Z,16.40
2018-04-29T07:29:51.916Z,14.57
2018-04-29T07:32:19.929Z,13.97
2018-04-29T07:34:47.830Z,12.20
2018-04-29T07:37:15.894Z,12.50
2018-04-29T07:39:43.870Z,10.80
2018-04-29T07:42:11.869Z,10.80
2018-04-29T07:44:39.768Z,9.27
2018-04-29T07:47:07.683Z,8.70
2018-04-29T07:49:35.665Z,8.40
2018-04-29T07:52:03.682Z,9.27
2018-04-29T07:54:31.654Z,8.87
2018-04-29T07:56:59.744Z,9.07
2018-04-29T07:59:27.660Z,9.73
2018-04-29T08:01:55.585Z,7.43
2018-04-29T08:04:23.488Z,8.13
2018-04-29T08:06:51.484Z,7.90
2018-04-29T08:09:19.296Z,7.73
2018-04-29T08:11:47.202Z,10.47
2018-04-29T08:14:15.150Z,17.87
2018-04-29T08:16:43.052Z,8.07
2018-04-29T08:19:10.967Z,7.83
2018-04-29T08:21:39.005Z,6.70
2018-04-29T08:24:06.908Z,6.97
2018-04-29T08:26:34.803Z,7.13
2018-04-29T08:29:02.730Z,7.97
2018-04-29T08:31:30.646Z,7.93
2018-04-29T08:33:58.560Z,9.83
2018-04-29T08:36:26.688Z,9.83
2018-04-29T08:38:54.584Z,10.03
2018-04-29T08:41:22.499Z,10.60
2018-04-29T08:43:50.399Z,10.47
2018-04-29T08:46:18.302Z,10.60
2018-04-29T08:48:46.255Z,11.00
2018-04-29T08:51:14.155Z,11.00
2018-04-29T08:53:42.114Z,10.13
2018-04-29T08:56:10.053Z,8.87
2018-04-29T08:58:37.976Z,9.03
2018-04-29T09:01:05.888Z,8.97
2018-04-29T09:03:33.901Z,7.80
2018-04-29T09:06:02.145Z,7.43
2018-04-29T09:08:30.041Z,8.80
2018-04-29T09:10:57.951Z,9.50
2018-04-29T09:13:25.858Z,8.17
2018-04-29T09:15:53.804Z,8.30
2018-04-29T09:18:21.709Z,9.70
2018-04-29T09:20:49.648Z,9.10
2018-04-29T09:23:17.572Z,9.10
2018-04-29T09:25:45.475Z,8.40
2018-04-29T09:28:14.000Z,8.77
2018-04-29T09:30:41.920Z,8.33
2018-04-29T09:33:09.846Z,8.23
2018-04-29T09:35:37.770Z,9.30
2018-04-29T09:38:05.672Z,9.17
2018-04-29T09:40:33.582Z,23.57
2018-04-29T09:43:01.508Z,14.77
2018-04-29T09:45:29.435Z,9.90
2018-04-29T09:47:57.328Z,9.43
2018-04-29T09:50:25.248Z,10.23
2018-04-29T09:52:53.151Z,9.90
2018-04-29T09:55:21.255Z,9.27
2018-04-29T09:57:49.243Z,8.63
2018-04-29T10:00:32.058Z,8.50
2018-04-29T10:03:06.331Z,8.33
2018-04-29T10:05:34.264Z,9.03
2018-04-29T10:08:02.183Z,9.07
2018-04-29T10:10:30.118Z,10.40
2018-04-29T10:12:58.059Z,8.70
2018-04-29T10:15:25.982Z,9.40
2018-04-29T10:17:53.922Z,9.77
2018-04-29T10:20:21.834Z,8.53
2018-04-29T10:22:49.758Z,8.67
2018-04-29T10:25:17.682Z,8.50
2018-04-29T10:27:45.717Z,8.70
2018-04-29T10:30:13.644Z,8.53
2018-04-29T10:32:41.610Z,7.97
2018-04-29T10:35:09.516Z,8.00
2018-04-29T10:37:37.431Z,8.73
2018-04-29T10:40:05.344Z,9.30
2018-04-29T10:42:33.312Z,7.40
2018-04-29T10:45:01.222Z,7.20
2018-04-29T10:47:29.122Z,8.30
2018-04-29T10:49:57.043Z,8.50
2018-04-29T10:52:25.022Z,8.13
2018-04-29T10:54:52.904Z,9.27
2018-04-29T10:57:20.826Z,9.80
2018-04-29T10:59:48.743Z,10.13
2018-04-29T11:02:16.700Z,13.07
2018-04-29T11:04:44.644Z,13.23
2018-04-29T11:07:12.590Z,12.20
2018-04-29T11:09:40.520Z,12.53
2018-04-29T11:12:08.492Z,11.83
2018-04-29T11:14:36.458Z,12.20
2018-04-29T11:17:04.385Z,14.60
2018-04-29T11:19:32.291Z,14.80
2018-04-29T11:22:00.230Z,13.67
2018-04-29T11:24:28.168Z,13.23
2018-04-29T11:26:56.072Z,13.33
2018-04-29T11:29:24.149Z,15.40
2018-04-29T11:31:52.092Z,14.23
2018-04-29T11:34:20.003Z,14.23
2018-04-29T11:36:48.004Z,13.73
2018-04-29T11:39:15.942Z,12.40
2018-04-29T11:41:43.873Z,13.13
2018-04-29T11:44:11.797Z,13.17
2018-04-29T11:46:39.714Z,12.70
2018-04-29T11:49:07.648Z,14.10
2018-04-29T11:51:35.565Z,15.90
2018-04-29T11:54:03.512Z,15.93
2018-04-29T11:56:31.510Z,17.47
2018-04-29T11:58:59.408Z,18.40
2018-04-29T12:01:27.340Z,17.80
2018-04-29T12:03:55.429Z,17.93
2018-04-29T12:06:23.331Z,17.47
2018-04-29T12:08:51.274Z,12.60
2018-04-29T12:11:19.216Z,14.00
2018-04-29T12:13:47.142Z,12.23
2018-04-29T12:16:15.103Z,12.57
2018-04-29T12:18:43.054Z,11.63
2018-04-29T12:21:10.985Z,15.77
2018-04-29T12:23:38.909Z,16.37
2018-04-29T12:26:06.892Z,17.60
2018-04-29T12:28:34.821Z,16.60
2018-04-29T12:31:02.735Z,18.20
2018-04-29T12:33:30.670Z,16.03
2018-04-29T12:35:58.590Z,19.70
2018-04-29T12:38:26.499Z,18.40
2018-04-29T12:40:54.430Z,20.67
2018-04-29T12:43:22.374Z,17.97
2018-04-29T12:45:50.323Z,21.00
2018-04-29T12:48:18.271Z,25.90
2018-04-29T12:50:46.212Z,30.20
2018-04-29T12:53:14.127Z,31.57
2018-04-29T12:55:42.115Z,30.30
2018-04-29T12:58:10.097Z,28.67
2018-04-29T13:00:38.641Z,27.13
2018-04-29T13:03:06.627Z,27.97
2018-04-29T13:05:34.721Z,23.50
2018-04-29T13:08:02.835Z,21.97
2018-04-29T13:10:30.756Z,24.40
2018-04-29T13:12:58.729Z,29.70
2018-04-29T13:15:26.671Z,32.20
2018-04-29T13:17:54.576Z,29.90
2018-04-29T13:20:22.540Z,32.40
2018-04-29T13:22:50.447Z,29.63
2018-04-29T13:25:18.392Z,30.50
2018-04-29T13:27:46.344Z,26.33
2018-04-29T13:30:14.327Z,28.37
2018-04-29T13:32:42.251Z,25.40
2018-04-29T13:35:10.834Z,26.07
2018-04-29T13:37:38.800Z,23.97
2018-04-29T13:40:06.737Z,23.10
2018-04-29T13:42:34.680Z,14.27
2018-04-29T13:45:02.624Z,15.67
2018-04-29T13:47:30.550Z,14.77
2018-04-29T13:49:58.520Z,16.67
2018-04-29T13:52:26.433Z,21.77
2018-04-29T13:54:54.387Z,23.10
2018-04-29T13:57:22.311Z,25.57
2018-04-29T13:59:50.264Z,23.80
2018-04-29T14:02:18.229Z,22.77
2018-04-29T14:04:46.138Z,25.20
2018-04-29T14:07:14.150Z,23.93
2018-04-29T14:09:42.007Z,23.10
2018-04-29T14:12:09.934Z,24.87
2018-04-29T14:14:37.844Z,24.87
2018-04-29T14:17:05.773Z,23.53
2018-04-29T14:19:33.726Z,21.50
2018-04-29T14:22:01.674Z,21.50
2018-04-29T14:24:29.607Z,22.73
2018-04-29T14:26:58.418Z,23.20
2018-04-29T14:29:26.453Z,24.57
2018-04-29T14:31:54.407Z,24.47
2018-04-29T14:34:22.368Z,22.93
2018-04-29T14:36:50.320Z,22.10
2018-04-29T14:39:18.244Z,20.90
2018-04-29T14:41:46.245Z,20.23
2018-04-29T14:44:14.204Z,20.70
2018-04-29T14:46:42.103Z,29.27
2018-04-29T14:49:10.067Z,20.70
2018-04-29T14:51:38.032Z,22.57
2018-04-29T14:54:06.044Z,20.30
2018-04-29T14:56:33.946Z,21.90
2018-04-29T14:59:01.865Z,19.73
2018-04-29T15:01:29.809Z,18.93
2018-04-29T15:03:57.823Z,18.93
2018-04-29T15:06:25.781Z,18.70
2018-04-29T15:08:53.693Z,16.57
2018-04-29T15:11:21.716Z,19.13
2018-04-29T15:13:49.759Z,21.30
2018-04-29T15:16:17.761Z,19.73
2018-04-29T15:18:57.394Z,22.77
2018-04-29T15:21:25.353Z,20.20
2018-04-29T15:23:53.338Z,18.23
2018-04-29T15:26:21.382Z,18.00
2018-04-29T15:28:49.414Z,18.27
2018-04-29T15:31:17.498Z,17.43
2018-04-29T15:33:45.414Z,17.00
2018-04-29T15:36:13.380Z,18.13
2018-04-29T15:38:41.377Z,16.20
2018-04-29T15:41:09.941Z,16.10
2018-04-29T15:43:37.840Z,16.13
2018-04-29T15:46:05.762Z,15.20
2018-04-29T15:48:33.685Z,15.13
2018-04-29T15:51:01.623Z,15.80
2018-04-29T15:53:29.569Z,15.90
2018-04-29T15:55:57.511Z,18.33
2018-04-29T15:58:25.478Z,18.63
2018-04-29T16:00:53.363Z,17.47
2018-04-29T16:03:21.317Z,16.97
2018-04-29T16:05:49.238Z,18.13
2018-04-29T16:08:17.203Z,18.73
2018-04-29T16:10:45.114Z,15.83
2018-04-29T16:13:13.073Z,18.23
2018-04-29T16:15:41.003Z,19.20
2018-04-29T16:18:08.945Z,17.57
2018-04-29T16:20:36.880Z,17.80
2018-04-29T16:23:04.811Z,18.10
2018-04-29T16:25:32.774Z,19.37
2018-04-29T16:28:00.696Z,18.10
2018-04-29T16:30:28.624Z,20.00
2018-04-29T16:32:56.627Z,18.00
2018-04-29T16:35:24.582Z,19.03
2018-04-29T16:37:52.603Z,20.50
2018-04-29T16:40:20.735Z,19.80
2018-04-29T16:42:48.672Z,19.33
2018-04-29T16:45:16.887Z,21.87
2018-04-29T16:47:44.814Z,21.87
2018-04-29T16:50:12.763Z,18.90
2018-04-29T16:52:40.679Z,21.37
2018-04-29T16:55:08.600Z,18.87
2018-04-29T16:57:36.628Z,19.80
2018-04-29T17:00:04.541Z,19.90
2018-04-29T17:02:32.465Z,22.33
2018-04-29T17:05:00.392Z,19.67
2018-04-29T17:07:28.371Z,21.70
2018-04-29T17:09:56.343Z,21.77
2018-04-29T17:12:24.295Z,19.70
2018-04-29T17:14:52.423Z,21.37
2018-04-29T17:17:20.424Z,20.30
2018-04-29T17:19:48.444Z,21.23
2018-04-29T17:22:16.433Z,20.50
2018-04-29T17:24:44.459Z,22.63
2018-04-29T17:27:12.407Z,20.80
2018-04-29T17:29:40.368Z,23.10
2018-04-29T17:32:08.280Z,24.40
2018-04-29T17:34:36.210Z,25.17
2018-04-29T17:37:04.136Z,24.40
2018-04-29T17:39:32.048Z,23.30
2018-04-29T17:41:59.981Z,72.70
2018-04-29T17:44:27.911Z,57.23
2018-04-29T17:46:55.852Z,30.53
2018-04-29T17:49:23.771Z,47.73
2018-04-29T17:51:53.146Z,30.43
2018-04-29T17:54:21.160Z,28.27
2018-04-29T17:56:51.467Z,25.00
2018-04-29T17:59:19.382Z,27.53
2018-04-29T18:01:47.299Z,26.90
2018-04-29T18:04:15.299Z,26.70
2018-04-29T18:06:46.865Z,25.47
2018-04-29T18:09:18.386Z,27.63
2018-04-29T18:11:46.300Z,26.27
2018-04-29T18:14:14.233Z,26.43
2018-04-29T18:16:42.148Z,26.50
2018-04-29T18:19:10.055Z,27.73
2018-04-29T18:21:37.982Z,24.07
2018-04-29T18:24:05.896Z,25.13
2018-04-29T18:26:33.840Z,23.27
2018-04-29T18:29:01.783Z,23.23
2018-04-29T18:31:29.729Z,22.40
2018-04-29T18:33:57.673Z,23.17
2018-04-29T18:36:25.606Z,20.00
2018-04-29T18:38:53.554Z,19.30
2018-04-29T18:41:21.443Z,18.90
2018-04-29T18:43:49.384Z,18.33
2018-04-29T18:46:17.319Z,18.47
2018-04-29T18:48:45.243Z,17.67
2018-04-29T18:51:13.276Z,19.20
2018-04-29T18:53:41.085Z,19.83
2018-04-29T18:56:09.059Z,19.27
2018-04-29T18:58:36.943Z,18.77
2018-04-29T19:01:04.858Z,19.07
2018-04-29T19:03:32.833Z,19.37
2018-04-29T19:06:00.759Z,16.77
2018-04-29T19:08:28.839Z,19.50
2018-04-29T19:10:56.767Z,17.43
2018-04-29T19:13:24.699Z,16.13
2018-04-29T19:15:52.664Z,15.90
2018-04-29T19:18:20.619Z,17.23
2018-04-29T19:20:48.532Z,16.10
2018-04-29T19:23:16.447Z,16.27
2018-04-29T19:25:44.363Z,15.33
2018-04-29T19:28:12.280Z,15.10
2018-04-29T19:30:40.225Z,15.77
2018-04-29T19:33:08.167Z,15.00
2018-04-29T19:35:36.074Z,15.53
2018-04-29T19:38:04.010Z,14.33
2018-04-29T19:40:31.922Z,16.17
2018-04-29T19:42:59.895Z,14.03
2018-04-29T19:45:27.812Z,15.20
2018-04-29T19:47:55.705Z,14.23
2018-04-29T19:50:23.623Z,16.43
2018-04-29T19:52:51.776Z,29.30
2018-04-29T19:55:19.937Z,19.43
2018-04-29T19:57:47.834Z,16.27
2018-04-29T20:00:15.791Z,14.40
2018-04-29T20:02:43.740Z,13.33
2018-04-29T20:05:11.696Z,13.60
2018-04-29T20:07:40.290Z,12.87
2018-04-29T20:10:09.112Z,13.57
2018-04-29T20:12:37.027Z,60.00
2018-04-29T20:15:04.936Z,35.50
2018-04-29T20:17:33.025Z,71.97
2018-04-29T20:20:00.934Z,38.70
2018-04-29T20:22:28.896Z,15.93
2018-04-29T20:24:56.826Z,11.97
2018-04-29T20:27:24.769Z,13.27
2018-04-29T20:29:52.702Z,12.93
2018-04-29T20:32:32.423Z,12.90
2018-04-29T20:35:00.351Z,14.40
2018-04-29T20:37:28.322Z,13.97
2018-04-29T20:39:56.218Z,14.33
2018-04-29T20:42:24.172Z,12.97
2018-04-29T20:44:52.119Z,14.37
2018-04-29T20:47:20.130Z,12.30
2018-04-29T20:49:48.046Z,14.30
2018-04-29T20:52:15.972Z,14.53
2018-04-29T20:54:43.867Z,13.30
2018-04-29T20:57:11.807Z,15.13
2018-04-29T20:59:39.720Z,14.23
2018-04-29T21:02:07.649Z,15.10
2018-04-29T21:04:35.605Z,16.30
2018-04-29T21:07:03.541Z,14.20
2018-04-29T21:09:31.591Z,13.97
2018-04-29T21:11:59.518Z,16.77
2018-04-29T21:14:27.423Z,14.83
2018-04-29T21:16:55.355Z,15.67
2018-04-29T21:19:23.347Z,14.10
2018-04-29T21:21:51.279Z,17.50
2018-04-29T21:24:19.195Z,16.30
2018-04-29T21:26:47.131Z,14.90
2018-04-29T21:29:15.076Z,17.53
2018-04-29T21:31:42.999Z,15.60
2018-04-29T21:34:10.903Z,15.10
2018-04-29T21:36:38.837Z,17.70
2018-04-29T21:39:06.763Z,16.83
2018-04-29T21:41:34.709Z,17.13
2018-04-29T21:44:02.627Z,15.97
2018-04-29T21:46:30.539Z,16.67
2018-04-29T21:48:58.465Z,16.77
2018-04-29T21:51:26.396Z,18.63
2018-04-29T21:53:54.827Z,18.67
2018-04-29T21:56:22.782Z,19.80
2018-04-29T21:58:50.726Z,19.73
2018-04-29T22:01:18.607Z,20.20
2018-04-29T22:03:46.552Z,20.40
2018-04-29T22:06:14.461Z,20.90
2018-04-29T22:08:42.392Z,20.83
2018-04-29T22:11:10.336Z,20.33
2018-04-29T22:13:38.251Z,20.77
2018-04-29T22:16:06.164Z,20.93
2018-04-29T22:18:34.089Z,21.97
2018-04-29T22:21:02.038Z,20.70
2018-04-29T22:23:29.941Z,20.70
2018-04-29T22:25:57.899Z,21.63
2018-04-29T22:28:25.821Z,21.43
2018-04-29T22:30:53.760Z,21.67
2018-04-29T22:33:21.684Z,21.47
2018-04-29T22:35:49.615Z,21.07
2018-04-29T22:38:17.583Z,21.83
2018-04-29T22:40:45.502Z,23.40
2018-04-29T22:43:13.418Z,21.30
2018-04-29T22:45:41.373Z,20.93
2018-04-29T22:48:09.295Z,22.63
2018-04-29T22:50:37.227Z,22.60
2018-04-29T22:53:05.131Z,20.57
2018-04-29T22:55:33.062Z,19.90
2018-04-29T22:58:01.022Z,23.20
2018-04-29T23:00:28.954Z,20.43
2018-04-29T23:02:56.867Z,20.73
2018-04-29T23:05:24.839Z,19.23
2018-04-29T23:07:52.767Z,19.70
2018-04-29T23:10:20.687Z,20.67
2018-04-29T23:12:48.629Z,19.23
2018-04-29T23:15:16.647Z,19.47
2018-04-29T23:17:44.579Z,19.53
2018-04-29T23:20:12.519Z,19.47
2018-04-29T23:22:40.447Z,18.60
2018-04-29T23:25:08.377Z,18.13
2018-04-29T23:27:36.291Z,16.80
2018-04-29T23:30:04.207Z,17.67
2018-04-29T23:32:32.135Z,16.93
2018-04-29T23:35:00.055Z,17.60
2018-04-29T23:37:28.002Z,17.30
2018-04-29T23:39:55.924Z,16.77
2018-04-29T23:42:23.841Z,18.00
2018-04-29T23:44:51.771Z,17.37
2018-04-29T23:47:19.685Z,17.03
2018-04-29T23:49:47.650Z,16.37
2018-04-29T23:52:15.561Z,16.23
2018-04-29T23:54:43.492Z,16.50
2018-04-29T23:57:11.423Z,16.00
2018-04-29T23:59:39.345Z,17.10
